createdAt,value
2023-03-28T00:00:17.018Z,4.60
2023-03-28T00:02:43.604Z,5.20
2023-03-28T00:05:10.417Z,4.40
2023-03-28T00:07:37.117Z,3.90
2023-03-28T00:10:04.572Z,4.30
2023-03-28T00:12:31.184Z,4.10
2023-03-28T00:14:57.836Z,4.50
2023-03-28T00:17:25.309Z,3.80
2023-03-28T00:19:52.089Z,3.90
2023-03-28T00:22:18.563Z,5.30
2023-03-28T00:24:45.049Z,4.30
2023-03-28T00:27:11.621Z,4.10
2023-03-28T00:29:38.097Z,4.60
2023-03-28T00:32:05.132Z,4.50
2023-03-28T00:34:31.672Z,4.80
2023-03-28T00:36:58.196Z,4.60
2023-03-28T00:39:24.759Z,4.20
2023-03-28T00:41:51.349Z,4.40
2023-03-28T00:44:50.395Z,4.10
2023-03-28T00:47:35.265Z,4.90
2023-03-28T00:50:17.205Z,4.30
2023-03-28T00:52:51.204Z,5.30
2023-03-28T00:55:23.775Z,6.40
2023-03-28T00:57:51.238Z,6.30
2023-03-28T01:00:18.428Z,4.90
2023-03-28T01:02:48.072Z,5.30
2023-03-28T01:05:14.650Z,5.10
2023-03-28T01:07:46.151Z,6.10
2023-03-28T01:12:43.365Z,4.50
2023-03-28T01:15:11.772Z,4.90
2023-03-28T01:17:41.795Z,5.10
2023-03-28T01:20:27.446Z,4.80
2023-03-28T01:23:31.996Z,5.00
2023-03-28T01:26:28.123Z,4.70
2023-03-28T01:29:16.293Z,5.40
2023-03-28T01:32:21.183Z,6.00
2023-03-28T01:35:05.908Z,5.80
2023-03-28T01:37:42.385Z,6.40
2023-03-28T01:40:33.346Z,6.60
2023-03-28T01:43:08.457Z,5.40
2023-03-28T01:46:08.028Z,6.80
2023-03-28T01:48:56.030Z,6.50
2023-03-28T01:51:34.700Z,6.50
2023-03-28T01:54:26.912Z,6.30
2023-03-28T01:57:44.441Z,6.70
2023-03-28T02:00:24.301Z,7.00
2023-03-28T02:03:10.285Z,7.00
2023-03-28T02:05:39.117Z,6.90
2023-03-28T02:08:09.558Z,7.80
2023-03-28T02:10:40.879Z,7.90
2023-03-28T02:13:14.380Z,8.40
2023-03-28T02:15:45.514Z,7.70
2023-03-28T02:18:19.287Z,7.90
2023-03-28T02:20:52.988Z,7.50
2023-03-28T02:23:28.551Z,8.20
2023-03-28T02:25:55.438Z,8.80
2023-03-28T02:28:23.725Z,8.00
2023-03-28T02:30:50.958Z,7.90
2023-03-28T02:33:50.964Z,8.00
2023-03-28T02:36:44.767Z,8.30
2023-03-28T02:39:32.908Z,9.40
2023-03-28T02:42:14.928Z,8.90
2023-03-28T02:45:06.318Z,8.70
2023-03-28T02:47:44.842Z,9.20
2023-03-28T02:50:34.650Z,9.80
2023-03-28T02:53:08.904Z,9.20
2023-03-28T02:56:10.214Z,11.40
2023-03-28T02:59:16.145Z,12.70
2023-03-28T03:01:43.722Z,13.80
2023-03-28T03:04:11.203Z,11.70
2023-03-28T03:06:37.778Z,10.30
2023-03-28T03:09:04.971Z,9.30
2023-03-28T03:11:32.351Z,8.40
2023-03-28T03:13:58.801Z,8.20
2023-03-28T03:16:27.023Z,8.90
2023-03-28T03:18:55.931Z,9.00
2023-03-28T03:21:23.084Z,8.90
2023-03-28T03:23:51.844Z,8.20
2023-03-28T03:26:18.610Z,8.20
2023-03-28T03:28:45.143Z,10.20
2023-03-28T03:31:12.140Z,8.90
2023-03-28T03:33:38.698Z,10.00
2023-03-28T03:36:06.259Z,9.50
2023-03-28T03:38:32.815Z,9.50
2023-03-28T03:40:59.480Z,10.70
2023-03-28T03:43:25.914Z,10.30
2023-03-28T03:45:52.522Z,10.20
2023-03-28T03:48:19.356Z,11.20
2023-03-28T03:50:45.892Z,10.50
2023-03-28T03:53:12.533Z,13.10
2023-03-28T03:55:40.725Z,13.80
2023-03-28T03:58:07.440Z,12.90
2023-03-28T04:00:33.985Z,14.60
2023-03-28T04:03:00.467Z,11.90
2023-03-28T04:05:26.995Z,17.70
2023-03-28T04:07:53.539Z,18.60
2023-03-28T04:10:20.595Z,14.40
2023-03-28T04:12:47.356Z,12.40
2023-03-28T04:15:13.992Z,11.60
2023-03-28T04:17:41.125Z,11.70
2023-03-28T04:20:08.709Z,11.30
2023-03-28T04:22:35.251Z,11.70
2023-03-28T04:25:01.998Z,12.40
2023-03-28T04:27:28.574Z,13.00
2023-03-28T04:29:55.319Z,12.90
2023-03-28T04:32:21.777Z,12.30
2023-03-28T04:34:48.507Z,12.70
2023-03-28T04:37:16.774Z,13.50
2023-03-28T04:39:43.728Z,14.20
2023-03-28T04:42:10.302Z,12.60
2023-03-28T04:44:37.033Z,12.60
2023-03-28T04:47:03.651Z,13.40
2023-03-28T04:49:30.225Z,12.40
2023-03-28T04:51:56.769Z,13.10
2023-03-28T04:54:23.372Z,13.00
2023-03-28T04:56:49.870Z,15.00
2023-03-28T04:59:17.725Z,15.50
2023-03-28T05:01:45.010Z,18.70
2023-03-28T05:04:11.537Z,17.20
2023-03-28T05:06:38.077Z,18.60
2023-03-28T05:09:04.576Z,18.60
2023-03-28T05:11:31.065Z,17.20
2023-03-28T05:13:59.142Z,19.80
2023-03-28T05:16:25.727Z,20.20
2023-03-28T05:18:52.294Z,22.50
2023-03-28T05:21:44.509Z,22.40
2023-03-28T05:24:11.007Z,23.50
2023-03-28T05:26:37.445Z,22.90
2023-03-28T05:29:04.224Z,23.00
2023-03-28T05:31:30.925Z,24.60
2023-03-28T05:33:57.724Z,23.30
2023-03-28T05:36:24.180Z,22.40
2023-03-28T05:38:50.702Z,23.40
2023-03-28T05:41:17.509Z,21.80
2023-03-28T05:43:43.996Z,22.30
2023-03-28T05:46:10.524Z,23.10
2023-03-28T05:48:37.121Z,22.20
2023-03-28T05:51:03.736Z,21.80
2023-03-28T05:53:30.179Z,20.50
2023-03-28T05:55:56.626Z,19.40
2023-03-28T05:58:24.718Z,18.60
2023-03-28T06:00:51.168Z,17.70
2023-03-28T06:03:18.116Z,15.50
2023-03-28T06:05:45.127Z,14.50
2023-03-28T06:08:11.850Z,13.20
2023-03-28T06:10:38.585Z,12.50
2023-03-28T06:13:05.127Z,11.50
2023-03-28T06:15:32.200Z,11.40
2023-03-28T06:17:58.684Z,11.50
2023-03-28T06:20:25.333Z,11.20
2023-03-28T06:22:53.483Z,10.90
2023-03-28T06:25:20.199Z,11.20
2023-03-28T06:27:46.821Z,12.10
2023-03-28T06:30:14.088Z,11.80
2023-03-28T06:32:40.598Z,10.20
2023-03-28T06:35:08.095Z,10.40
2023-03-28T06:37:34.533Z,10.40
2023-03-28T06:40:00.988Z,9.40
2023-03-28T06:42:27.501Z,9.10
2023-03-28T06:44:54.092Z,9.20
2023-03-28T06:47:20.594Z,7.80
2023-03-28T06:49:47.269Z,8.00
2023-03-28T06:52:13.715Z,7.20
2023-03-28T06:54:40.134Z,8.10
2023-03-28T06:57:06.687Z,8.60
2023-03-28T06:59:33.251Z,9.10
2023-03-28T07:01:59.699Z,8.60
2023-03-28T07:04:26.299Z,9.20
2023-03-28T07:06:52.763Z,9.40
2023-03-28T07:09:19.337Z,9.60
2023-03-28T07:11:45.855Z,10.20
2023-03-28T07:14:12.503Z,11.20
2023-03-28T07:16:38.971Z,14.20
2023-03-28T07:19:05.716Z,13.50
2023-03-28T07:21:32.219Z,9.50
2023-03-28T07:23:58.876Z,11.60
2023-03-28T07:26:25.719Z,11.60
2023-03-28T07:28:54.024Z,13.70
2023-03-28T07:31:20.881Z,15.30
2023-03-28T07:33:47.977Z,16.90
2023-03-28T07:36:21.245Z,13.80
2023-03-28T07:38:49.571Z,16.60
2023-03-28T07:41:16.971Z,10.50
2023-03-28T07:43:44.349Z,10.50
2023-03-28T07:46:13.541Z,9.40
2023-03-28T07:48:40.718Z,8.30
2023-03-28T07:51:09.290Z,7.10
2023-03-28T07:53:37.220Z,5.60
2023-03-28T07:56:05.065Z,5.30
2023-03-28T07:58:31.805Z,4.70
2023-03-28T08:01:04.569Z,6.10
2023-03-28T08:03:31.282Z,6.30
2023-03-28T08:06:01.743Z,5.10
2023-03-28T08:08:29.531Z,6.20
2023-03-28T08:10:56.188Z,6.20
2023-03-28T08:13:23.463Z,7.40
2023-03-28T08:15:53.608Z,8.30
2023-03-28T08:20:48.735Z,8.40
2023-03-28T08:23:16.468Z,8.60
2023-03-28T08:25:47.134Z,7.80
2023-03-28T08:28:13.823Z,8.20
2023-03-28T08:30:40.544Z,6.40
2023-03-28T08:33:07.226Z,6.70
2023-03-28T08:35:33.782Z,6.60
2023-03-28T08:38:00.372Z,5.70
2023-03-28T08:40:28.768Z,5.40
2023-03-28T08:43:15.285Z,5.60
2023-03-28T08:45:57.581Z,4.00
2023-03-28T08:48:39.741Z,6.20
2023-03-28T08:51:22.165Z,5.70
2023-03-28T08:54:11.785Z,5.70
2023-03-28T08:56:49.336Z,4.70
2023-03-28T08:59:48.458Z,5.40
2023-03-28T09:02:19.685Z,6.90
2023-03-28T09:04:47.327Z,7.80
2023-03-28T09:07:54.053Z,7.20
2023-03-28T09:10:41.359Z,7.40
2023-03-28T09:13:40.781Z,7.00
2023-03-28T09:16:18.829Z,7.60
2023-03-28T09:19:05.284Z,8.20
2023-03-28T09:22:15.547Z,8.80
2023-03-28T09:25:04.845Z,6.20
2023-03-28T09:27:41.126Z,7.60
2023-03-28T09:30:19.758Z,6.60
2023-03-28T09:32:46.528Z,7.50
2023-03-28T09:35:19.085Z,7.80
2023-03-28T09:37:54.358Z,8.20
2023-03-28T09:40:25.044Z,9.40
2023-03-28T09:43:06.855Z,5.70
2023-03-28T09:45:36.146Z,7.50
2023-03-28T09:48:05.169Z,6.90
2023-03-28T09:50:31.723Z,11.20
2023-03-28T09:52:59.246Z,11.20
2023-03-28T09:55:30.777Z,8.20
2023-03-28T10:00:46.217Z,9.00
2023-03-28T10:03:19.629Z,9.50
2023-03-28T10:05:46.730Z,10.60
2023-03-28T10:08:24.728Z,9.20
2023-03-28T10:11:00.694Z,11.40
2023-03-28T10:13:28.790Z,8.70
2023-03-28T10:15:56.806Z,11.10
2023-03-28T10:18:27.813Z,8.30
2023-03-28T10:20:54.776Z,10.10
2023-03-28T10:23:23.733Z,9.00
2023-03-28T10:25:54.589Z,9.30
2023-03-28T10:28:32.867Z,9.60
2023-03-28T10:31:02.671Z,10.50
2023-03-28T10:33:35.384Z,4.30
2023-03-28T10:36:07.198Z,5.50
2023-03-28T10:38:48.263Z,5.50
2023-03-28T10:41:26.228Z,5.00
2023-03-28T10:43:53.906Z,3.50
2023-03-28T10:46:24.513Z,2.80
2023-03-28T10:49:03.990Z,3.10
2023-03-28T10:51:32.281Z,2.70
2023-03-28T10:54:36.712Z,2.30
2023-03-28T10:57:13.195Z,2.50
2023-03-28T10:59:45.567Z,3.70
2023-03-28T11:02:15.045Z,2.60
2023-03-28T11:04:54.678Z,2.20
2023-03-28T11:07:45.147Z,1.70
2023-03-28T11:10:19.265Z,1.90
2023-03-28T11:12:55.547Z,1.80
2023-03-28T11:15:58.384Z,1.70
2023-03-28T11:18:40.002Z,2.00
2023-03-28T11:21:32.508Z,2.10
2023-03-28T11:24:04.956Z,1.70
2023-03-28T11:26:48.504Z,2.60
2023-03-28T11:29:19.535Z,4.50
2023-03-28T11:32:03.721Z,4.70
2023-03-28T11:34:41.500Z,4.20
2023-03-28T11:37:15.555Z,3.40
2023-03-28T11:40:09.584Z,2.50
2023-03-28T11:42:47.439Z,4.10
2023-03-28T11:45:51.326Z,3.60
2023-03-28T11:48:29.182Z,4.30
2023-03-28T11:51:26.765Z,4.40
2023-03-28T11:54:23.730Z,2.40
2023-03-28T11:56:58.920Z,2.70
2023-03-28T11:59:35.122Z,3.00
2023-03-28T12:02:15.581Z,3.30
2023-03-28T12:04:49.840Z,2.40
2023-03-28T12:07:22.204Z,3.30
2023-03-28T12:10:08.579Z,2.60
2023-03-28T12:12:56.856Z,2.00
2023-03-28T12:15:45.329Z,3.20
2023-03-28T12:18:23.944Z,3.10
2023-03-28T12:21:04.784Z,4.20
2023-03-28T12:23:38.732Z,2.40
2023-03-28T12:26:45.732Z,2.50
2023-03-28T12:29:32.190Z,3.70
2023-03-28T12:32:32.497Z,1.50
2023-03-28T12:35:11.503Z,1.90
2023-03-28T12:37:43.386Z,1.70
2023-03-28T12:40:12.817Z,2.00
2023-03-28T12:42:42.732Z,2.10
2023-03-28T12:45:20.966Z,2.30
2023-03-28T12:47:53.443Z,2.20
2023-03-28T12:50:35.520Z,2.50
2023-03-28T12:53:02.367Z,2.60
2023-03-28T12:55:28.930Z,2.20
2023-03-28T12:58:13.953Z,2.20
2023-03-28T13:00:54.662Z,2.20
2023-03-28T13:03:59.327Z,3.20
2023-03-28T13:06:52.150Z,2.80
2023-03-28T13:09:43.918Z,6.00
2023-03-28T13:15:22.433Z,2.00
2023-03-28T13:18:17.882Z,2.30
2023-03-28T13:20:46.153Z,1.90
2023-03-28T13:23:15.429Z,2.10
2023-03-28T13:25:52.628Z,2.10
2023-03-28T13:28:40.005Z,1.80
2023-03-28T13:31:19.723Z,2.70
2023-03-28T13:33:58.997Z,3.70
2023-03-28T13:36:31.971Z,2.30
2023-03-28T13:39:19.493Z,2.40
2023-03-28T13:41:45.967Z,1.80
2023-03-28T13:44:17.332Z,2.10
2023-03-28T13:46:50.872Z,3.00
2023-03-28T13:49:19.289Z,3.70
2023-03-28T13:51:55.722Z,3.20
2023-03-28T13:54:24.002Z,2.30
2023-03-28T13:56:52.946Z,2.60
2023-03-28T13:59:25.337Z,3.50
2023-03-28T14:01:56.936Z,4.40
2023-03-28T14:04:50.277Z,3.20
2023-03-28T14:07:23.679Z,2.80
2023-03-28T14:09:50.120Z,3.80
2023-03-28T14:12:16.890Z,7.50
2023-03-28T14:14:51.663Z,4.50
2023-03-28T14:17:23.343Z,3.50
2023-03-28T14:19:57.228Z,3.50
2023-03-28T14:22:32.264Z,3.50
2023-03-28T14:25:01.456Z,4.10
2023-03-28T14:27:30.962Z,4.20
2023-03-28T14:29:59.936Z,6.80
2023-03-28T14:32:32.546Z,6.50
2023-03-28T14:35:18.342Z,10.20
2023-03-28T14:37:56.877Z,13.50
2023-03-28T14:40:23.271Z,11.80
2023-03-28T14:42:55.595Z,13.20
2023-03-28T14:45:25.525Z,17.80
2023-03-28T14:47:52.331Z,7.90
2023-03-28T14:50:20.982Z,11.90
2023-03-28T14:52:48.010Z,10.00
2023-03-28T14:55:18.729Z,10.00
2023-03-28T14:57:47.251Z,6.90
2023-03-28T15:00:19.269Z,11.00
2023-03-28T15:02:47.273Z,7.10
2023-03-28T15:05:17.824Z,8.80
2023-03-28T15:07:45.980Z,7.60
2023-03-28T15:10:13.757Z,7.80
2023-03-28T15:13:06.374Z,8.50
2023-03-28T15:15:38.263Z,6.90
2023-03-28T15:18:11.256Z,7.40
2023-03-28T15:20:39.320Z,9.20
2023-03-28T15:23:14.362Z,8.50
2023-03-28T15:25:43.472Z,11.10
2023-03-28T15:28:15.908Z,9.90
2023-03-28T15:30:46.242Z,11.90
2023-03-28T15:33:23.272Z,12.00
2023-03-28T15:35:49.894Z,11.60
2023-03-28T15:38:27.940Z,13.20
2023-03-28T15:41:16.661Z,13.60
2023-03-28T15:43:55.129Z,8.80
2023-03-28T15:46:28.504Z,10.20
2023-03-28T15:48:59.544Z,7.10
2023-03-28T15:51:27.114Z,6.50
2023-03-28T15:53:55.492Z,6.10
2023-03-28T15:56:26.120Z,4.60
2023-03-28T15:58:59.116Z,4.90
2023-03-28T16:01:30.599Z,5.80
2023-03-28T16:06:44.658Z,6.40
2023-03-28T16:09:20.424Z,5.80
2023-03-28T16:11:51.949Z,7.00
2023-03-28T16:16:46.743Z,6.20
2023-03-28T16:19:22.320Z,6.00
2023-03-28T16:21:49.240Z,6.50
2023-03-28T16:24:16.172Z,5.40
2023-03-28T16:26:43.447Z,7.10
2023-03-28T16:29:10.146Z,7.40
2023-03-28T16:31:37.396Z,9.80
2023-03-28T16:34:06.055Z,8.80
2023-03-28T16:36:34.621Z,11.50
2023-03-28T16:39:01.359Z,9.20
2023-03-28T16:41:28.116Z,8.60
2023-03-28T16:43:54.655Z,8.40
2023-03-28T16:46:21.283Z,10.00
2023-03-28T16:48:47.843Z,10.10
2023-03-28T16:51:14.433Z,12.20
2023-03-28T16:53:41.237Z,16.60
2023-03-28T16:56:09.518Z,14.40
2023-03-28T16:58:36.067Z,11.40
2023-03-28T17:01:15.361Z,10.00
2023-03-28T17:03:41.989Z,13.80
2023-03-28T17:06:10.042Z,13.20
2023-03-28T17:08:37.199Z,10.80
2023-03-28T17:11:09.417Z,10.20
2023-03-28T17:13:39.774Z,10.20
2023-03-28T17:16:08.226Z,11.70
2023-03-28T17:18:34.848Z,12.40
2023-03-28T17:21:10.261Z,16.50
2023-03-28T17:23:38.498Z,17.20
2023-03-28T17:26:07.057Z,21.70
2023-03-28T17:28:34.171Z,14.70
2023-03-28T17:31:05.647Z,13.60
2023-03-28T17:33:32.649Z,13.40
2023-03-28T17:36:00.626Z,12.30
2023-03-28T17:38:27.604Z,9.40
2023-03-28T17:40:54.349Z,6.50
2023-03-28T17:43:21.202Z,7.50
2023-03-28T17:45:53.726Z,6.80
2023-03-28T17:48:20.176Z,6.20
2023-03-28T17:50:56.101Z,9.50
2023-03-28T17:53:22.635Z,9.90
2023-03-28T17:55:49.041Z,9.80
2023-03-28T17:58:15.578Z,9.60
2023-03-28T18:00:42.322Z,11.10
2023-03-28T18:03:08.984Z,12.80
2023-03-28T18:05:35.699Z,10.80
2023-03-28T18:08:02.311Z,11.80
2023-03-28T18:10:28.747Z,10.50
2023-03-28T18:12:55.368Z,10.50
2023-03-28T18:15:21.943Z,11.80
2023-03-28T18:17:48.540Z,10.10
2023-03-28T18:20:15.340Z,12.50
2023-03-28T18:22:41.752Z,14.30
2023-03-28T18:25:09.445Z,11.50
2023-03-28T18:27:35.995Z,12.80
2023-03-28T18:30:02.439Z,12.30
2023-03-28T18:32:28.961Z,8.70
2023-03-28T18:34:55.495Z,11.80
2023-03-28T18:37:23.950Z,12.30
2023-03-28T18:39:50.462Z,12.60
2023-03-28T18:42:17.008Z,12.00
2023-03-28T18:44:43.522Z,12.80
2023-03-28T18:47:10.770Z,12.90
2023-03-28T18:49:37.452Z,11.90
2023-03-28T18:52:03.957Z,14.00
2023-03-28T18:54:32.305Z,13.10
2023-03-28T18:56:59.122Z,11.60
2023-03-28T18:59:26.602Z,9.70
2023-03-28T19:01:53.891Z,10.90
2023-03-28T19:04:22.132Z,10.80
2023-03-28T19:06:49.956Z,10.30
2023-03-28T19:09:16.454Z,9.90
2023-03-28T19:11:43.209Z,8.30
2023-03-28T19:14:10.189Z,17.40
2023-03-28T19:16:37.924Z,9.10
2023-03-28T19:19:06.556Z,10.60
2023-03-28T19:21:33.332Z,9.50
2023-03-28T19:24:00.101Z,9.50
2023-03-28T19:26:26.716Z,7.60
2023-03-28T19:28:53.367Z,9.40
2023-03-28T19:31:19.967Z,9.50
2023-03-28T19:33:46.813Z,7.60
2023-03-28T19:36:13.382Z,8.10
2023-03-28T19:38:41.950Z,6.80
2023-03-28T19:41:19.298Z,7.60
2023-03-28T19:43:47.133Z,7.90
2023-03-28T19:46:19.632Z,7.30
2023-03-28T19:48:46.149Z,8.10
2023-03-28T19:51:13.270Z,6.50
2023-03-28T19:53:43.438Z,6.90
2023-03-28T19:56:10.111Z,8.30
2023-03-28T19:58:36.677Z,7.80
2023-03-28T20:01:04.082Z,7.30
2023-03-28T20:03:31.547Z,9.50
2023-03-28T20:06:03.770Z,7.80
2023-03-28T20:08:30.607Z,6.90
2023-03-28T20:10:57.324Z,7.30
2023-03-28T20:13:23.842Z,8.30
2023-03-28T20:15:50.527Z,8.80
2023-03-28T20:18:18.877Z,6.80
2023-03-28T20:20:50.952Z,7.40
2023-03-28T20:23:18.728Z,8.20
2023-03-28T20:25:45.886Z,6.70
2023-03-28T20:28:12.428Z,7.90
2023-03-28T20:30:39.098Z,7.90
2023-03-28T20:33:05.898Z,7.90
2023-03-28T20:35:33.369Z,7.30
2023-03-28T20:37:59.992Z,8.30
2023-03-28T20:40:27.140Z,8.80
2023-03-28T20:42:53.963Z,9.40
2023-03-28T20:45:20.944Z,10.10
2023-03-28T20:47:58.124Z,8.10
2023-03-28T20:50:27.182Z,8.80
2023-03-28T20:52:53.720Z,8.20
2023-03-28T20:55:20.673Z,7.60
2023-03-28T20:57:47.137Z,12.10
2023-03-28T21:00:15.030Z,7.50
2023-03-28T21:02:42.123Z,10.50
2023-03-28T21:05:09.191Z,15.40
2023-03-28T21:07:36.015Z,10.70
2023-03-28T21:10:02.522Z,8.20
2023-03-28T21:12:29.096Z,8.30
2023-03-28T21:14:55.543Z,7.60
2023-03-28T21:17:22.542Z,8.00
2023-03-28T21:19:49.330Z,7.70
2023-03-28T21:22:16.188Z,8.70
2023-03-28T21:24:42.944Z,9.00
2023-03-28T21:27:09.386Z,10.70
2023-03-28T21:29:35.955Z,10.40
2023-03-28T21:32:02.533Z,10.60
2023-03-28T21:34:29.238Z,9.40
2023-03-28T21:36:55.730Z,10.70
2023-03-28T21:39:22.364Z,10.10
2023-03-28T21:41:55.264Z,7.90
2023-03-28T21:44:22.731Z,8.10
2023-03-28T21:46:49.407Z,8.30
2023-03-28T21:49:16.013Z,9.10
2023-03-28T21:51:42.554Z,9.70
2023-03-28T21:54:09.022Z,9.70
2023-03-28T21:56:35.967Z,10.90
2023-03-28T21:59:02.446Z,10.70
2023-03-28T22:01:29.337Z,10.40
2023-03-28T22:03:55.884Z,9.90
2023-03-28T22:06:22.436Z,10.10
2023-03-28T22:08:49.559Z,10.20
2023-03-28T22:11:18.165Z,9.50
2023-03-28T22:13:45.442Z,10.10
2023-03-28T22:16:12.349Z,9.40
2023-03-28T22:18:40.290Z,9.20
2023-03-28T22:21:09.809Z,8.20
2023-03-28T22:23:36.685Z,8.80
2023-03-28T22:26:03.299Z,8.60
2023-03-28T22:28:32.932Z,7.00
2023-03-28T22:31:01.843Z,6.80
2023-03-28T22:33:28.545Z,7.00
2023-03-28T22:35:56.150Z,6.20
2023-03-28T22:38:22.812Z,6.80
2023-03-28T22:40:49.926Z,6.50
2023-03-28T22:44:01.166Z,5.30
2023-03-28T22:46:27.916Z,5.70
2023-03-28T22:48:54.664Z,4.50
2023-03-28T22:51:21.313Z,4.40
2023-03-28T22:53:49.125Z,4.80
2023-03-28T22:56:15.674Z,5.20
2023-03-28T22:58:42.159Z,4.20
2023-03-28T23:01:08.698Z,4.80
2023-03-28T23:03:35.321Z,4.90
2023-03-28T23:06:03.571Z,4.40
2023-03-28T23:08:31.684Z,4.90
2023-03-28T23:10:58.140Z,4.50
2023-03-28T23:13:25.852Z,3.60
2023-03-28T23:15:52.401Z,4.50
2023-03-28T23:18:19.686Z,3.90
2023-03-28T23:20:50.316Z,3.80
2023-03-28T23:23:17.505Z,3.50
2023-03-28T23:25:44.101Z,3.20
2023-03-28T23:28:11.041Z,4.40
2023-03-28T23:30:39.058Z,3.60
2023-03-28T23:33:05.791Z,3.30
2023-03-28T23:35:32.960Z,3.70
2023-03-28T23:37:59.619Z,3.40
2023-03-28T23:40:27.291Z,3.80
2023-03-28T23:42:54.048Z,3.80
2023-03-28T23:45:20.601Z,3.80
2023-03-28T23:47:51.333Z,3.20
2023-03-28T23:50:18.704Z,3.70
2023-03-28T23:52:45.249Z,3.20
2023-03-28T23:55:11.879Z,3.30
2023-03-28T23:57:38.412Z,3.10
